createdAt,value
2023-05-25T00:01:03.048Z,19.83
2023-05-25T00:03:04.859Z,19.84
2023-05-25T00:05:06.273Z,19.84
2023-05-25T00:07:07.761Z,19.81
2023-05-25T00:09:09.511Z,19.79
2023-05-25T00:11:11.155Z,19.79
2023-05-25T00:13:12.535Z,19.77
2023-05-25T00:15:13.860Z,19.76
2023-05-25T00:17:15.549Z,19.76
2023-05-25T00:19:18.606Z,19.75
2023-05-25T00:21:20.645Z,19.73
2023-05-25T00:23:22.147Z,19.72
2023-05-25T00:25:23.539Z,19.72
2023-05-25T00:27:25.392Z,19.72
2023-05-25T00:29:26.774Z,19.74
2023-05-25T00:31:28.298Z,19.73
2023-05-25T00:33:29.799Z,19.79
2023-05-25T00:35:31.131Z,19.82
2023-05-25T00:37:32.458Z,19.84
2023-05-25T00:39:33.811Z,19.84
2023-05-25T00:41:35.385Z,19.83
2023-05-25T00:43:36.712Z,19.82
2023-05-25T00:45:38.032Z,19.83
2023-05-25T00:47:39.664Z,19.83
2023-05-25T00:49:41.342Z,19.82
2023-05-25T00:51:42.890Z,19.80
2023-05-25T00:53:44.223Z,19.81
2023-05-25T00:55:45.777Z,19.80
2023-05-25T00:57:48.125Z,19.83
2023-05-25T00:59:49.773Z,19.87
2023-05-25T01:01:53.980Z,19.87
2023-05-25T01:03:55.462Z,19.88
2023-05-25T01:05:57.515Z,19.86
2023-05-25T01:07:58.837Z,19.83
2023-05-25T01:10:00.326Z,19.83
2023-05-25T01:12:02.323Z,19.83
2023-05-25T01:14:03.722Z,19.82
2023-05-25T01:16:05.139Z,19.80
2023-05-25T01:18:06.485Z,19.82
2023-05-25T01:20:11.118Z,19.84
2023-05-25T01:22:13.458Z,19.87
2023-05-25T01:24:17.633Z,19.97
2023-05-25T01:26:19.007Z,19.90
2023-05-25T01:28:20.544Z,19.82
2023-05-25T01:30:22.169Z,19.74
2023-05-25T01:32:23.572Z,19.70
2023-05-25T01:34:24.911Z,19.66
2023-05-25T01:36:26.911Z,19.67
2023-05-25T01:38:28.265Z,19.70
2023-05-25T01:40:29.655Z,19.69
2023-05-25T01:42:31.006Z,19.68
2023-05-25T01:44:32.446Z,19.67
2023-05-25T01:46:35.691Z,19.67
2023-05-25T01:48:37.101Z,19.66
2023-05-25T01:50:38.424Z,19.73
2023-05-25T01:52:39.789Z,19.78
2023-05-25T01:54:41.155Z,19.79
2023-05-25T01:56:42.810Z,19.80
2023-05-25T01:58:44.162Z,19.79
2023-05-25T02:00:45.529Z,19.77
2023-05-25T02:02:46.964Z,19.77
2023-05-25T02:04:48.439Z,19.76
2023-05-25T02:06:50.033Z,19.75
2023-05-25T02:08:51.370Z,19.75
2023-05-25T02:10:52.759Z,19.77
2023-05-25T02:12:54.324Z,19.76
2023-05-25T02:14:55.771Z,19.78
2023-05-25T02:16:57.971Z,19.78
2023-05-25T02:18:59.317Z,19.78
2023-05-25T02:21:00.644Z,19.79
2023-05-25T02:23:02.250Z,19.78
2023-05-25T02:25:03.575Z,19.77
2023-05-25T02:27:04.948Z,19.76
2023-05-25T02:29:06.655Z,19.77
2023-05-25T02:31:08.048Z,19.76
2023-05-25T02:33:09.430Z,19.76
2023-05-25T02:35:13.717Z,19.74
2023-05-25T02:37:15.083Z,19.73
2023-05-25T02:39:16.485Z,19.74
2023-05-25T02:41:17.853Z,19.75
2023-05-25T02:43:19.183Z,19.79
2023-05-25T02:45:20.518Z,19.80
2023-05-25T02:47:22.020Z,19.82
2023-05-25T02:49:23.386Z,19.77
2023-05-25T02:51:24.722Z,19.75
2023-05-25T02:53:26.086Z,19.72
2023-05-25T02:55:27.522Z,19.72
2023-05-25T02:57:29.151Z,19.71
2023-05-25T02:59:30.726Z,19.70
2023-05-25T03:01:32.150Z,19.70
2023-05-25T03:03:33.585Z,19.71
2023-05-25T03:05:35.369Z,19.74
2023-05-25T03:07:36.789Z,19.76
2023-05-25T03:09:38.116Z,19.75
2023-05-25T03:11:39.447Z,19.72
2023-05-25T03:13:40.820Z,19.70
2023-05-25T03:15:42.326Z,19.68
2023-05-25T03:17:43.824Z,19.70
2023-05-25T03:19:45.151Z,19.73
2023-05-25T03:21:46.599Z,19.74
2023-05-25T03:23:47.939Z,19.75
2023-05-25T03:25:49.261Z,19.74
2023-05-25T03:27:50.617Z,19.75
2023-05-25T03:29:51.954Z,19.73
2023-05-25T03:31:53.288Z,19.73
2023-05-25T03:33:54.724Z,19.72
2023-05-25T03:35:56.114Z,19.72
2023-05-25T03:37:57.462Z,19.72
2023-05-25T03:39:58.814Z,19.74
2023-05-25T03:42:00.216Z,19.80
2023-05-25T03:44:02.288Z,19.85
2023-05-25T03:46:03.692Z,19.85
2023-05-25T03:48:05.142Z,19.82
2023-05-25T03:50:07.133Z,19.84
2023-05-25T03:52:08.467Z,19.84
2023-05-25T03:54:09.853Z,19.84
2023-05-25T03:56:11.230Z,19.83
2023-05-25T03:58:13.860Z,19.83
2023-05-25T04:00:15.221Z,19.84
2023-05-25T04:02:16.965Z,19.89
2023-05-25T04:04:18.342Z,19.91
2023-05-25T04:06:19.767Z,19.92
2023-05-25T04:08:22.497Z,19.94
2023-05-25T04:10:23.900Z,19.96
2023-05-25T04:12:25.420Z,19.99
2023-05-25T04:14:26.891Z,19.99
2023-05-25T04:16:28.345Z,19.98
2023-05-25T04:18:29.727Z,19.98
2023-05-25T04:20:31.232Z,20.01
2023-05-25T04:22:33.455Z,20.03
2023-05-25T04:24:34.915Z,20.03
2023-05-25T04:26:36.366Z,19.99
2023-05-25T04:28:37.704Z,19.97
2023-05-25T04:30:39.755Z,19.98
2023-05-25T04:32:42.216Z,19.97
2023-05-25T04:34:46.812Z,19.93
2023-05-25T04:36:48.734Z,19.92
2023-05-25T04:38:52.214Z,19.93
2023-05-25T04:40:54.083Z,19.92
2023-05-25T04:42:55.948Z,19.92
2023-05-25T04:44:57.281Z,19.93
2023-05-25T04:46:59.686Z,19.98
2023-05-25T04:49:01.015Z,20.00
2023-05-25T04:51:04.584Z,20.01
2023-05-25T04:53:05.947Z,19.98
2023-05-25T04:55:07.271Z,19.91
2023-05-25T04:57:08.689Z,19.84
2023-05-25T04:59:10.073Z,19.82
2023-05-25T05:01:11.436Z,19.82
2023-05-25T05:03:13.595Z,19.81
2023-05-25T05:05:15.036Z,19.82
2023-05-25T05:07:16.370Z,19.82
2023-05-25T05:09:17.776Z,19.83
2023-05-25T05:11:19.095Z,19.82
2023-05-25T05:13:20.551Z,19.84
2023-05-25T05:15:21.950Z,19.83
2023-05-25T05:17:24.066Z,19.90
2023-05-25T05:19:25.404Z,19.97
2023-05-25T05:21:26.775Z,19.88
2023-05-25T05:23:28.178Z,19.89
2023-05-25T05:25:29.573Z,19.89
2023-05-25T05:27:33.757Z,19.90
2023-05-25T05:29:35.127Z,19.90
2023-05-25T05:31:36.832Z,19.90
2023-05-25T05:33:38.209Z,19.90
2023-05-25T05:35:39.663Z,19.94
2023-05-25T05:37:41.086Z,19.93
2023-05-25T05:39:42.453Z,19.96
2023-05-25T05:41:45.429Z,19.97
2023-05-25T05:43:46.896Z,19.98
2023-05-25T05:45:48.265Z,20.02
2023-05-25T05:47:49.635Z,20.03
2023-05-25T05:49:51.013Z,20.05
2023-05-25T05:51:52.371Z,20.05
2023-05-25T05:53:53.780Z,20.04
2023-05-25T05:55:59.073Z,20.04
2023-05-25T05:58:00.591Z,20.03
2023-05-25T06:00:01.958Z,20.04
2023-05-25T06:02:03.412Z,20.04
2023-05-25T06:04:04.793Z,20.03
2023-05-25T06:06:06.240Z,20.05
2023-05-25T06:08:10.065Z,20.03
2023-05-25T06:10:11.969Z,20.03
2023-05-25T06:12:13.287Z,20.04
2023-05-25T06:14:14.640Z,20.04
2023-05-25T06:16:16.295Z,20.04
2023-05-25T06:18:17.658Z,20.04
2023-05-25T06:20:19.659Z,20.04
2023-05-25T06:22:22.040Z,20.04
2023-05-25T06:24:23.360Z,20.04
2023-05-25T06:26:25.000Z,20.05
2023-05-25T06:28:26.365Z,20.04
2023-05-25T06:30:27.713Z,20.03
2023-05-25T06:32:29.125Z,20.04
2023-05-25T06:34:31.057Z,20.05
2023-05-25T06:36:32.647Z,20.06
2023-05-25T06:38:34.131Z,20.13
2023-05-25T06:40:35.453Z,20.16
2023-05-25T06:42:37.865Z,20.17
2023-05-25T06:44:39.211Z,20.22
2023-05-25T06:46:41.431Z,20.15
2023-05-25T06:48:42.904Z,20.11
2023-05-25T06:50:46.092Z,20.11
2023-05-25T06:52:47.431Z,20.10
2023-05-25T06:54:48.800Z,20.09
2023-05-25T06:56:50.203Z,20.09
2023-05-25T06:58:51.563Z,20.12
2023-05-25T07:00:52.903Z,20.14
2023-05-25T07:02:54.329Z,20.12
2023-05-25T07:04:55.733Z,20.14
2023-05-25T07:06:57.109Z,20.14
2023-05-25T07:08:58.565Z,20.14
2023-05-25T07:10:59.970Z,20.16
2023-05-25T07:13:02.430Z,20.16
2023-05-25T07:15:03.763Z,20.19
2023-05-25T07:17:05.108Z,20.22
2023-05-25T07:19:06.444Z,20.24
2023-05-25T07:21:09.984Z,20.25
2023-05-25T07:23:11.445Z,20.25
2023-05-25T07:25:12.789Z,20.26
2023-05-25T07:27:14.278Z,20.31
2023-05-25T07:29:15.707Z,20.32
2023-05-25T07:31:17.704Z,20.35
2023-05-25T07:33:19.090Z,20.37
2023-05-25T07:35:20.772Z,20.38
2023-05-25T07:37:22.102Z,20.42
2023-05-25T07:39:23.450Z,20.48
2023-05-25T07:41:24.792Z,20.49
2023-05-25T07:43:26.148Z,20.50
2023-05-25T07:45:27.541Z,20.54
2023-05-25T07:47:28.967Z,20.67
2023-05-25T07:49:30.339Z,20.71
2023-05-25T07:51:32.982Z,20.75
2023-05-25T07:53:34.389Z,20.64
2023-05-25T07:55:36.107Z,20.55
2023-05-25T07:57:37.491Z,20.68
2023-05-25T07:59:38.843Z,20.54
2023-05-25T08:01:40.194Z,20.42
2023-05-25T08:05:49.216Z,20.30
2023-05-25T08:07:50.579Z,20.27
2023-05-25T08:09:51.961Z,20.26
2023-05-25T08:12:00.327Z,20.25
2023-05-25T08:14:09.432Z,20.24
2023-05-25T08:16:10.825Z,20.23
2023-05-25T08:18:12.216Z,20.23
2023-05-25T08:20:13.740Z,20.23
2023-05-25T08:22:15.175Z,20.24
2023-05-25T08:24:16.501Z,20.22
2023-05-25T08:26:34.129Z,20.21
2023-05-25T08:28:39.166Z,20.20
2023-05-25T08:30:41.290Z,20.11
2023-05-25T08:32:42.786Z,20.09
2023-05-25T08:34:44.133Z,20.09
2023-05-25T08:36:45.793Z,19.95
2023-05-25T08:38:47.124Z,19.96
2023-05-25T08:40:48.455Z,19.99
2023-05-25T08:42:49.774Z,19.96
2023-05-25T08:44:51.110Z,20.00
2023-05-25T08:46:52.561Z,19.98
2023-05-25T08:48:54.112Z,19.99
2023-05-25T08:50:55.475Z,19.97
2023-05-25T08:52:56.814Z,19.98
2023-05-25T08:54:58.138Z,19.92
2023-05-25T08:56:59.889Z,19.87
2023-05-25T08:59:03.320Z,19.89
2023-05-25T09:01:07.540Z,19.92
2023-05-25T09:03:09.022Z,19.94
2023-05-25T09:05:10.535Z,19.95
2023-05-25T09:07:11.964Z,19.94
2023-05-25T09:09:13.439Z,19.92
2023-05-25T09:11:16.941Z,19.92
2023-05-25T09:13:22.930Z,19.92
2023-05-25T09:15:24.607Z,18.80
2023-05-25T09:17:26.813Z,19.92
2023-05-25T09:19:28.165Z,19.92
2023-05-25T09:21:29.491Z,19.90
2023-05-25T09:23:30.876Z,19.90
2023-05-25T09:25:32.256Z,19.90
2023-05-25T09:27:33.662Z,19.98
2023-05-25T09:29:34.988Z,20.14
2023-05-25T09:31:36.382Z,20.42
2023-05-25T09:33:37.736Z,20.50
2023-05-25T09:35:39.300Z,20.46
2023-05-25T09:37:40.909Z,20.38
2023-05-25T09:39:42.625Z,20.33
2023-05-25T09:41:44.052Z,19.07
2023-05-25T09:43:54.655Z,20.07
2023-05-25T09:46:03.244Z,19.91
2023-05-25T09:48:04.753Z,19.92
2023-05-25T09:50:06.349Z,20.28
2023-05-25T09:52:07.694Z,21.03
2023-05-25T09:54:09.046Z,21.63
2023-05-25T09:56:10.388Z,21.59
2023-05-25T09:58:13.335Z,21.58
2023-05-25T10:00:14.982Z,21.55
2023-05-25T10:02:16.387Z,21.70
2023-05-25T10:04:17.758Z,21.25
2023-05-25T10:06:19.117Z,20.83
2023-05-25T10:08:21.623Z,20.61
2023-05-25T10:10:23.231Z,20.56
2023-05-25T10:12:25.957Z,20.56
2023-05-25T10:14:29.450Z,20.69
2023-05-25T10:16:31.161Z,21.28
2023-05-25T10:18:32.520Z,21.42
2023-05-25T10:20:35.169Z,21.49
2023-05-25T10:22:36.751Z,21.60
2023-05-25T10:24:38.082Z,21.76
2023-05-25T10:26:39.456Z,21.76
2023-05-25T10:28:41.069Z,21.74
2023-05-25T10:30:42.423Z,21.80
2023-05-25T10:32:43.861Z,21.48
2023-05-25T10:34:45.807Z,19.93
2023-05-25T10:36:48.825Z,20.79
2023-05-25T10:38:50.176Z,20.64
2023-05-25T10:40:51.595Z,20.56
2023-05-25T10:42:52.936Z,19.95
2023-05-25T10:44:54.308Z,21.74
2023-05-25T10:46:55.757Z,21.41
2023-05-25T10:49:02.515Z,21.07
2023-05-25T10:51:04.223Z,20.82
2023-05-25T10:53:05.551Z,20.43
2023-05-25T10:55:07.186Z,20.36
2023-05-25T10:57:08.549Z,20.43
2023-05-25T10:59:09.883Z,20.49
2023-05-25T11:01:11.372Z,20.54
2023-05-25T11:03:12.856Z,20.48
2023-05-25T11:05:14.197Z,20.51
2023-05-25T11:07:16.654Z,20.43
2023-05-25T11:09:18.059Z,20.35
2023-05-25T11:11:19.409Z,20.31
2023-05-25T11:13:20.766Z,20.32
2023-05-25T11:15:22.130Z,20.27
2023-05-25T11:17:24.587Z,20.30
2023-05-25T11:19:26.232Z,20.35
2023-05-25T11:21:27.571Z,20.36
2023-05-25T11:23:29.457Z,20.37
2023-05-25T11:25:30.792Z,20.38
2023-05-25T11:27:32.241Z,20.31
2023-05-25T11:29:39.060Z,20.26
2023-05-25T11:31:43.318Z,20.30
2023-05-25T11:33:45.364Z,20.22
2023-05-25T11:35:48.936Z,20.17
2023-05-25T11:37:50.908Z,20.12
2023-05-25T11:39:52.235Z,20.15
2023-05-25T11:41:54.670Z,20.21
2023-05-25T11:43:57.046Z,20.24
2023-05-25T11:45:58.583Z,20.27
2023-05-25T11:47:59.992Z,20.26
2023-05-25T11:50:02.317Z,20.25
2023-05-25T11:52:03.718Z,20.26
2023-05-25T11:54:05.083Z,20.25
2023-05-25T11:56:08.350Z,20.24
2023-05-25T11:58:09.992Z,20.25
2023-05-25T12:00:11.544Z,20.24
2023-05-25T12:02:12.959Z,20.23
2023-05-25T12:04:16.750Z,20.25
2023-05-25T12:06:18.194Z,20.24
2023-05-25T12:08:19.519Z,20.25
2023-05-25T12:10:20.840Z,20.24
2023-05-25T12:12:22.214Z,20.24
2023-05-25T12:14:24.018Z,20.24
2023-05-25T12:16:25.415Z,20.24
2023-05-25T12:18:26.791Z,20.25
2023-05-25T12:20:28.238Z,20.24
2023-05-25T12:22:29.686Z,20.25
2023-05-25T12:24:31.049Z,20.24
2023-05-25T12:26:32.403Z,20.24
2023-05-25T12:28:33.797Z,20.24
2023-05-25T12:30:35.168Z,20.25
2023-05-25T12:32:36.696Z,20.25
2023-05-25T12:34:38.057Z,20.24
2023-05-25T12:36:39.794Z,20.25
2023-05-25T12:38:41.266Z,20.26
2023-05-25T12:40:42.860Z,20.26
2023-05-25T12:42:44.414Z,20.25
2023-05-25T12:44:49.115Z,20.26
2023-05-25T12:46:51.438Z,20.24
2023-05-25T12:48:52.826Z,20.24
2023-05-25T12:50:54.221Z,20.24
2023-05-25T12:52:55.736Z,20.24
2023-05-25T12:55:03.176Z,20.25
2023-05-25T12:57:06.599Z,20.24
2023-05-25T12:59:07.947Z,20.24
2023-05-25T13:01:09.343Z,20.24
2023-05-25T13:03:13.576Z,20.24
2023-05-25T13:05:14.993Z,20.23
2023-05-25T13:07:19.305Z,20.21
2023-05-25T13:09:21.392Z,20.22
2023-05-25T13:11:22.728Z,20.21
2023-05-25T13:13:24.099Z,20.22
2023-05-25T13:15:26.239Z,20.22
2023-05-25T13:17:27.648Z,20.21
2023-05-25T13:19:28.993Z,20.19
2023-05-25T13:21:30.311Z,20.19
2023-05-25T13:23:31.641Z,20.19
2023-05-25T13:25:33.038Z,20.20
2023-05-25T13:27:34.452Z,20.19
2023-05-25T13:29:35.780Z,20.22
2023-05-25T13:31:37.119Z,21.43
2023-05-25T13:33:38.470Z,22.01
2023-05-25T13:35:58.484Z,22.46
2023-05-25T13:38:00.135Z,22.84
2023-05-25T13:40:02.428Z,22.67
2023-05-25T13:42:03.756Z,22.73
2023-05-25T13:44:05.100Z,22.78
2023-05-25T13:46:18.456Z,22.63
2023-05-25T13:48:27.737Z,22.22
2023-05-25T13:50:29.397Z,22.00
2023-05-25T13:52:30.721Z,21.93
2023-05-25T13:54:32.117Z,21.55
2023-05-25T13:56:33.538Z,21.20
2023-05-25T13:58:34.905Z,20.98
2023-05-25T14:00:36.410Z,20.87
2023-05-25T14:02:37.946Z,20.80
2023-05-25T14:04:39.442Z,20.76
2023-05-25T14:06:40.799Z,20.73
2023-05-25T14:08:42.134Z,20.72
2023-05-25T14:10:44.306Z,20.70
2023-05-25T14:12:45.842Z,20.69
2023-05-25T14:14:47.179Z,20.69
2023-05-25T14:16:48.610Z,20.67
2023-05-25T14:18:49.977Z,20.67
2023-05-25T14:20:54.665Z,20.63
2023-05-25T14:22:56.087Z,20.64
2023-05-25T14:24:57.418Z,20.64
2023-05-25T14:26:58.758Z,20.63
2023-05-25T14:29:00.437Z,20.63
2023-05-25T14:31:01.814Z,20.59
2023-05-25T14:33:03.388Z,20.59
2023-05-25T14:35:04.830Z,20.60
2023-05-25T14:37:06.172Z,20.08
2023-05-25T14:39:07.525Z,20.60
2023-05-25T14:41:08.879Z,20.59
2023-05-25T14:43:10.336Z,20.58
2023-05-25T14:45:12.840Z,20.58
2023-05-25T14:47:15.590Z,20.56
2023-05-25T14:49:17.395Z,20.53
2023-05-25T14:51:18.781Z,20.52
2023-05-25T14:53:20.679Z,20.51
2023-05-25T14:55:22.052Z,20.49
2023-05-25T14:57:23.396Z,20.45
2023-05-25T14:59:24.815Z,20.43
2023-05-25T15:01:26.327Z,20.41
2023-05-25T15:03:27.896Z,20.41
2023-05-25T15:05:32.095Z,20.40
2023-05-25T15:07:33.480Z,20.37
2023-05-25T15:09:36.535Z,20.33
2023-05-25T15:11:37.892Z,20.33
2023-05-25T15:13:40.768Z,20.31
2023-05-25T15:15:42.330Z,20.30
2023-05-25T15:17:43.746Z,20.26
2023-05-25T15:19:45.102Z,20.24
2023-05-25T15:21:46.519Z,20.22
2023-05-25T15:23:47.891Z,20.21
2023-05-25T15:25:49.246Z,20.19
2023-05-25T15:27:50.644Z,20.14
2023-05-25T15:29:52.004Z,20.14
2023-05-25T15:31:53.744Z,20.11
2023-05-25T15:33:58.752Z,20.11
2023-05-25T15:36:00.441Z,20.08
2023-05-25T15:38:01.891Z,20.07
2023-05-25T15:40:03.370Z,20.03
2023-05-25T15:42:04.750Z,20.03
2023-05-25T15:44:08.307Z,19.99
2023-05-25T15:46:09.753Z,19.98
2023-05-25T15:48:11.212Z,19.96
2023-05-25T15:50:12.665Z,19.95
2023-05-25T15:52:14.086Z,19.92
2023-05-25T15:54:15.452Z,19.89
2023-05-25T15:56:16.963Z,19.87
2023-05-25T15:58:18.447Z,19.84
2023-05-25T16:00:19.879Z,19.81
2023-05-25T16:02:21.278Z,19.77
2023-05-25T16:04:23.688Z,19.77
2023-05-25T16:06:25.207Z,19.75
2023-05-25T16:08:26.532Z,19.74
2023-05-25T16:10:27.867Z,19.72
2023-05-25T16:12:29.761Z,19.71
2023-05-25T16:14:31.176Z,19.69
2023-05-25T16:16:32.716Z,19.65
2023-05-25T16:18:34.347Z,19.59
2023-05-25T16:20:36.103Z,19.60
2023-05-25T16:22:37.519Z,19.60
2023-05-25T16:24:38.941Z,19.59
2023-05-25T16:26:40.346Z,17.34
2023-05-25T16:28:41.725Z,19.57
2023-05-25T16:30:43.040Z,19.55
2023-05-25T16:32:44.471Z,19.63
2023-05-25T16:34:46.197Z,20.57
2023-05-25T16:36:47.528Z,20.94
2023-05-25T16:38:48.917Z,20.88
2023-05-25T16:40:50.367Z,21.17
2023-05-25T16:42:51.703Z,21.53
2023-05-25T16:44:53.163Z,21.33
2023-05-25T16:46:54.529Z,20.77
2023-05-25T16:48:55.982Z,20.37
2023-05-25T16:50:57.319Z,20.16
2023-05-25T16:52:58.664Z,20.03
2023-05-25T16:55:00.023Z,19.97
2023-05-25T16:57:02.288Z,19.92
2023-05-25T16:59:03.709Z,20.29
2023-05-25T17:01:05.134Z,21.22
2023-05-25T17:03:07.195Z,21.16
2023-05-25T17:05:08.668Z,21.11
2023-05-25T17:07:10.094Z,21.34
2023-05-25T17:09:12.038Z,21.21
2023-05-25T17:11:13.370Z,21.16
2023-05-25T17:13:14.698Z,21.55
2023-05-25T17:15:16.318Z,21.71
2023-05-25T17:17:17.660Z,21.77
2023-05-25T17:19:18.997Z,21.79
2023-05-25T17:21:20.379Z,21.81
2023-05-25T17:23:22.384Z,21.63
2023-05-25T17:25:23.723Z,21.46
2023-05-25T17:27:25.313Z,21.42
2023-05-25T17:29:26.743Z,21.40
2023-05-25T17:31:28.148Z,21.17
2023-05-25T17:33:29.574Z,20.74
2023-05-25T17:35:33.724Z,20.49
2023-05-25T17:37:35.044Z,20.34
2023-05-25T17:39:36.669Z,20.54
2023-05-25T17:41:38.007Z,20.89
2023-05-25T17:43:39.389Z,20.95
2023-05-25T17:45:40.873Z,21.00
2023-05-25T17:47:42.274Z,21.07
2023-05-25T17:49:43.665Z,21.05
2023-05-25T17:51:45.032Z,21.03
2023-05-25T17:53:46.780Z,21.02
2023-05-25T17:55:48.211Z,19.86
2023-05-25T17:57:49.535Z,21.05
2023-05-25T17:59:50.918Z,21.09
2023-05-25T18:01:52.387Z,21.07
2023-05-25T18:03:54.355Z,21.04
2023-05-25T18:05:55.971Z,21.03
2023-05-25T18:07:57.324Z,21.09
2023-05-25T18:09:58.714Z,21.09
2023-05-25T18:12:00.169Z,20.82
2023-05-25T18:14:02.258Z,20.78
2023-05-25T18:16:03.587Z,20.96
2023-05-25T18:18:06.712Z,21.02
2023-05-25T18:20:14.241Z,21.07
2023-05-25T18:22:15.792Z,21.10
2023-05-25T18:24:17.312Z,21.12
2023-05-25T18:26:18.717Z,21.12
2023-05-25T18:28:20.040Z,21.12
2023-05-25T18:30:21.358Z,21.17
2023-05-25T18:32:22.959Z,21.16
2023-05-25T18:34:24.425Z,21.03
2023-05-25T18:36:26.105Z,20.68
2023-05-25T18:38:27.439Z,20.44
2023-05-25T18:40:28.770Z,20.33
2023-05-25T18:42:30.130Z,20.25
2023-05-25T18:44:31.529Z,20.21
2023-05-25T18:46:32.996Z,20.17
2023-05-25T18:48:34.894Z,20.15
2023-05-25T18:50:37.543Z,20.12
2023-05-25T18:52:38.938Z,20.11
2023-05-25T18:54:40.501Z,20.10
2023-05-25T18:56:41.907Z,20.08
2023-05-25T18:58:43.350Z,20.06
2023-05-25T19:00:44.716Z,20.10
2023-05-25T19:02:46.179Z,20.49
2023-05-25T19:04:47.579Z,20.76
2023-05-25T19:06:48.913Z,20.89
2023-05-25T19:08:59.231Z,20.90
2023-05-25T19:11:00.603Z,20.91
2023-05-25T19:13:02.288Z,20.92
2023-05-25T19:15:09.477Z,20.96
2023-05-25T19:17:10.865Z,21.22
2023-05-25T19:19:12.272Z,21.09
2023-05-25T19:21:13.772Z,21.04
2023-05-25T19:23:15.155Z,21.03
2023-05-25T19:25:16.515Z,21.03
2023-05-25T19:27:19.990Z,21.06
2023-05-25T19:29:23.319Z,21.10
2023-05-25T19:31:24.722Z,21.07
2023-05-25T19:33:26.135Z,21.04
2023-05-25T19:35:27.550Z,21.03
2023-05-25T19:37:28.869Z,21.11
2023-05-25T19:39:31.649Z,21.37
2023-05-25T19:41:33.315Z,21.54
2023-05-25T19:43:34.709Z,21.64
2023-05-25T19:45:39.046Z,21.69
2023-05-25T19:47:40.617Z,21.25
2023-05-25T19:49:43.008Z,21.30
2023-05-25T19:51:44.348Z,21.28
2023-05-25T19:53:47.950Z,20.87
2023-05-25T19:55:49.290Z,20.64
2023-05-25T19:57:50.652Z,20.98
2023-05-25T19:59:52.004Z,21.24
2023-05-25T20:01:53.405Z,21.30
2023-05-25T20:03:54.839Z,21.28
2023-05-25T20:05:57.806Z,21.29
2023-05-25T20:07:59.178Z,21.54
2023-05-25T20:10:00.563Z,21.41
2023-05-25T20:12:02.589Z,21.43
2023-05-25T20:14:03.970Z,21.43
2023-05-25T20:16:05.575Z,21.45
2023-05-25T20:18:09.952Z,21.44
2023-05-25T20:20:11.387Z,21.48
2023-05-25T20:22:12.810Z,21.47
2023-05-25T20:24:14.224Z,21.45
2023-05-25T20:26:15.599Z,21.45
2023-05-25T20:28:17.072Z,21.46
2023-05-25T20:30:18.462Z,21.43
2023-05-25T20:32:19.798Z,21.45
2023-05-25T20:34:24.212Z,21.49
2023-05-25T20:36:25.570Z,21.42
2023-05-25T20:38:26.885Z,21.44
2023-05-25T20:40:28.219Z,21.44
2023-05-25T20:42:29.557Z,21.45
2023-05-25T20:44:32.113Z,21.47
2023-05-25T20:46:33.917Z,21.48
2023-05-25T20:48:35.515Z,21.49
2023-05-25T20:50:36.845Z,21.32
2023-05-25T20:52:40.833Z,20.98
2023-05-25T20:54:44.720Z,20.90
2023-05-25T20:56:47.902Z,21.16
2023-05-25T20:58:49.312Z,21.29
2023-05-25T21:00:51.201Z,21.40
2023-05-25T21:02:52.606Z,21.46
2023-05-25T21:04:54.028Z,21.48
2023-05-25T21:06:55.514Z,21.51
2023-05-25T21:08:56.859Z,21.48
2023-05-25T21:10:58.242Z,21.47
2023-05-25T21:12:59.571Z,21.53
2023-05-25T21:15:01.125Z,21.52
2023-05-25T21:17:02.485Z,21.58
2023-05-25T21:19:03.822Z,21.59
2023-05-25T21:21:05.677Z,21.58
2023-05-25T21:23:07.050Z,21.62
2023-05-25T21:25:08.420Z,21.64
2023-05-25T21:27:09.790Z,21.62
2023-05-25T21:29:11.169Z,21.68
2023-05-25T21:31:12.583Z,21.70
2023-05-25T21:33:13.987Z,21.67
2023-05-25T21:35:17.978Z,21.62
2023-05-25T21:37:19.332Z,21.71
2023-05-25T21:39:20.655Z,21.64
2023-05-25T21:41:23.476Z,21.58
2023-05-25T21:43:24.830Z,21.55
2023-05-25T21:45:26.202Z,21.68
2023-05-25T21:47:27.582Z,21.61
2023-05-25T21:49:29.018Z,21.55
2023-05-25T21:51:30.393Z,21.70
2023-05-25T21:53:31.789Z,21.55
2023-05-25T21:55:33.186Z,21.49
2023-05-25T21:57:34.540Z,21.46
2023-05-25T21:59:35.897Z,20.62
2023-05-25T22:01:37.326Z,19.46
2023-05-25T22:03:38.871Z,19.22
2023-05-25T22:05:40.248Z,19.81
2023-05-25T22:07:41.918Z,20.07
2023-05-25T22:09:43.321Z,20.16
2023-05-25T22:11:44.660Z,20.20
2023-05-25T22:13:45.996Z,20.19
2023-05-25T22:15:47.452Z,20.18
2023-05-25T22:17:48.969Z,20.16
2023-05-25T22:20:05.972Z,20.15
2023-05-25T22:22:09.046Z,20.11
2023-05-25T22:24:10.387Z,20.10
2023-05-25T22:26:11.764Z,20.09
2023-05-25T22:28:14.178Z,20.06
2023-05-25T22:30:15.578Z,20.05
2023-05-25T22:32:16.949Z,20.03
2023-05-25T22:34:18.276Z,20.02
2023-05-25T22:36:19.596Z,20.02
2023-05-25T22:38:20.934Z,19.99
2023-05-25T22:40:22.433Z,19.95
2023-05-25T22:42:23.970Z,19.93
2023-05-25T22:44:25.291Z,19.95
2023-05-25T22:46:26.884Z,19.97
2023-05-25T22:48:28.238Z,19.96
2023-05-25T22:50:29.626Z,19.94
2023-05-25T22:52:30.992Z,19.93
2023-05-25T22:54:32.314Z,19.95
2023-05-25T22:56:36.432Z,20.02
2023-05-25T22:58:38.103Z,20.00
2023-05-25T23:00:39.427Z,19.98
2023-05-25T23:02:40.853Z,19.99
2023-05-25T23:04:43.017Z,19.99
2023-05-25T23:06:44.335Z,19.94
2023-05-25T23:08:46.528Z,19.93
2023-05-25T23:10:47.895Z,19.91
2023-05-25T23:12:50.362Z,19.88
2023-05-25T23:14:51.952Z,19.86
2023-05-25T23:16:53.427Z,19.90
2023-05-25T23:18:54.820Z,19.97
2023-05-25T23:20:56.183Z,19.98
2023-05-25T23:22:57.518Z,19.99
2023-05-25T23:24:58.893Z,19.95
2023-05-25T23:27:00.876Z,19.94
2023-05-25T23:29:02.346Z,19.93
2023-05-25T23:31:03.712Z,19.93
2023-05-25T23:33:05.117Z,19.90
2023-05-25T23:35:06.490Z,19.89
2023-05-25T23:37:07.831Z,19.89
2023-05-25T23:39:09.498Z,19.90
2023-05-25T23:41:10.834Z,19.90
2023-05-25T23:43:12.858Z,19.89
2023-05-25T23:45:14.333Z,19.87
2023-05-25T23:47:15.754Z,19.88
2023-05-25T23:49:17.127Z,19.89
2023-05-25T23:51:18.503Z,19.88
2023-05-25T23:53:19.848Z,19.89
2023-05-25T23:55:21.454Z,19.86
2023-05-25T23:57:22.818Z,19.87
2023-05-25T23:59:24.180Z,19.86
